Huambo, Albano Machado Airport (FNHU)

NameAlbano Machado Airport
CityHuambo
CountryAngola
ICAOFNHU
IATANOV
Altitude1703 m
CoordinatesGoogle Map
Live Air TrafficLiveATC.net
METARFNHU 241400Z 20006KT CAVOK 26/03 Q1021
2019-06-24 14:00:00 Wind: South (200°) 3.09 m/s - Visibility: > 10000 m - Weather: CAVOK - Temperature: 26 °C - Dew point: 3 °C - Humidity: 22.6% - Pressure: 1021 hPa
Statistics

The table below shows the detailed information of all flights to/from Huambo, Albano Machado Airport (FNHU).